Maysville, Missouri
Current Conditions -  °F | °C
As of 10:53 AM on Sunday 21 Dec 2014 (Local Time) from KSTJ Reporting Station
Overcast Overcast  
Wind Chill: 34°   Ceiling: 1300
Heat Index: 41°   Visibility: 10mi
Dew Point: 37°   Wind: 13mph
Humidity: 86%   Direction: 180°S
Pressure: 29.97"   Gusts: NA
Location:  39.89°N, 94.36°W
Report Text: KSTJ 211653Z 18011KT 10SM OVC013 05/03 A2997 RMK AO2 SLP152 T00500028
Loading
Personal Weather Stations






























Interactive Weather Map New forecast layout! Learn more

10-Day Weather Forecast

Advertisements
Track Severe Weather on mobile